sensor_id;sensor_type;location;lat;lon;timestamp;temperature;humidity
80380;DHT22;69690;48.158;17.134;2023-05-03T00:00:08;14.60;74.10
80380;DHT22;69690;48.158;17.134;2023-05-03T00:00:40;14.60;74.20
80380;DHT22;69690;48.158;17.134;2023-05-03T00:01:11;14.60;74.60
80380;DHT22;69690;48.158;17.134;2023-05-03T00:01:43;14.60;75.00
80380;DHT22;69690;48.158;17.134;2023-05-03T00:02:14;14.60;74.90
80380;DHT22;69690;48.158;17.134;2023-05-03T00:02:46;14.60;75.00
80380;DHT22;69690;48.158;17.134;2023-05-03T00:03:17;14.60;75.10
80380;DHT22;69690;48.158;17.134;2023-05-03T00:03:54;14.60;75.20
80380;DHT22;69690;48.158;17.134;2023-05-03T00:04:25;14.70;74.80
80380;DHT22;69690;48.158;17.134;2023-05-03T00:04:56;14.60;74.10
80380;DHT22;69690;48.158;17.134;2023-05-03T00:05:29;14.60;73.80
80380;DHT22;69690;48.158;17.134;2023-05-03T00:06:11;14.60;73.90
80380;DHT22;69690;48.158;17.134;2023-05-03T00:06:44;14.60;74.30
80380;DHT22;69690;48.158;17.134;2023-05-03T00:07:15;14.70;74.60
80380;DHT22;69690;48.158;17.134;2023-05-03T00:07:48;14.60;74.40
80380;DHT22;69690;48.158;17.134;2023-05-03T00:08:19;14.70;74.70
80380;DHT22;69690;48.158;17.134;2023-05-03T00:08:51;14.70;74.80
80380;DHT22;69690;48.158;17.134;2023-05-03T00:09:23;14.70;74.80
80380;DHT22;69690;48.158;17.134;2023-05-03T00:09:54;14.70;74.50
80380;DHT22;69690;48.158;17.134;2023-05-03T00:10:25;14.70;74.40
80380;DHT22;69690;48.158;17.134;2023-05-03T00:10:59;14.80;74.40
80380;DHT22;69690;48.158;17.134;2023-05-03T00:11:32;14.70;74.10
80380;DHT22;69690;48.158;17.134;2023-05-03T00:12:04;14.70;74.50
80380;DHT22;69690;48.158;17.134;2023-05-03T00:12:39;14.70;74.10
80380;DHT22;69690;48.158;17.134;2023-05-03T00:13:11;14.70;74.40
80380;DHT22;69690;48.158;17.134;2023-05-03T00:13:43;14.70;74.20
80380;DHT22;69690;48.158;17.134;2023-05-03T00:14:14;14.80;73.40
80380;DHT22;69690;48.158;17.134;2023-05-03T00:14:45;14.70;72.90
80380;DHT22;69690;48.158;17.134;2023-05-03T00:15:17;14.70;72.80
80380;DHT22;69690;48.158;17.134;2023-05-03T00:15:50;14.70;73.10
80380;DHT22;69690;48.158;17.134;2023-05-03T00:16:22;14.70;73.60
80380;DHT22;69690;48.158;17.134;2023-05-03T00:16:53;14.70;73.60
80380;DHT22;69690;48.158;17.134;2023-05-03T00:17:24;14.70;73.70
80380;DHT22;69690;48.158;17.134;2023-05-03T00:17:55;14.70;73.90
80380;DHT22;69690;48.158;17.134;2023-05-03T00:18:27;14.70;73.40
80380;DHT22;69690;48.158;17.134;2023-05-03T00:19:00;14.70;73.50
80380;DHT22;69690;48.158;17.134;2023-05-03T00:19:31;14.70;73.70
80380;DHT22;69690;48.158;17.134;2023-05-03T00:20:04;14.70;73.40
80380;DHT22;69690;48.158;17.134;2023-05-03T00:20:36;14.70;73.10
80380;DHT22;69690;48.158;17.134;2023-05-03T00:21:07;14.60;72.90
80380;DHT22;69690;48.158;17.134;2023-05-03T00:21:38;14.60;73.20
80380;DHT22;69690;48.158;17.134;2023-05-03T00:22:10;14.70;73.60
80380;DHT22;69690;48.158;17.134;2023-05-03T00:22:42;14.60;73.30
80380;DHT22;69690;48.158;17.134;2023-05-03T00:23:13;14.70;73.20
80380;DHT22;69690;48.158;17.134;2023-05-03T00:23:44;14.60;73.10
80380;DHT22;69690;48.158;17.134;2023-05-03T00:24:16;14.70;73.20
80380;DHT22;69690;48.158;17.134;2023-05-03T00:24:48;14.70;73.20
80380;DHT22;69690;48.158;17.134;2023-05-03T00:25:20;14.70;73.20
80380;DHT22;69690;48.158;17.134;2023-05-03T00:25:53;14.70;73.40
80380;DHT22;69690;48.158;17.134;2023-05-03T00:26:26;14.70;73.60
80380;DHT22;69690;48.158;17.134;2023-05-03T00:26:58;14.80;73.70
80380;DHT22;69690;48.158;17.134;2023-05-03T00:27:29;14.80;73.80
80380;DHT22;69690;48.158;17.134;2023-05-03T00:28:01;14.80;73.60
80380;DHT22;69690;48.158;17.134;2023-05-03T00:28:32;14.80;73.70
80380;DHT22;69690;48.158;17.134;2023-05-03T00:29:03;14.80;73.70
80380;DHT22;69690;48.158;17.134;2023-05-03T00:29:34;14.80;73.60
80380;DHT22;69690;48.158;17.134;2023-05-03T00:30:06;14.80;73.50
80380;DHT22;69690;48.158;17.134;2023-05-03T00:30:38;14.80;73.40
80380;DHT22;69690;48.158;17.134;2023-05-03T00:31:09;14.80;73.40
80380;DHT22;69690;48.158;17.134;2023-05-03T00:31:43;14.80;73.40
80380;DHT22;69690;48.158;17.134;2023-05-03T00:32:14;14.80;73.30
80380;DHT22;69690;48.158;17.134;2023-05-03T00:32:46;14.70;72.90
80380;DHT22;69690;48.158;17.134;2023-05-03T00:33:17;14.80;73.20
80380;DHT22;69690;48.158;17.134;2023-05-03T00:33:48;14.70;73.10
80380;DHT22;69690;48.158;17.134;2023-05-03T00:34:20;14.70;73.00
80380;DHT22;69690;48.158;17.134;2023-05-03T00:34:55;14.70;73.20
80380;DHT22;69690;48.158;17.134;2023-05-03T00:35:27;14.70;73.30
80380;DHT22;69690;48.158;17.134;2023-05-03T00:35:58;14.70;73.10
80380;DHT22;69690;48.158;17.134;2023-05-03T00:36:29;14.70;73.00
80380;DHT22;69690;48.158;17.134;2023-05-03T00:37:01;14.70;72.70
80380;DHT22;69690;48.158;17.134;2023-05-03T00:37:32;14.70;72.40
80380;DHT22;69690;48.158;17.134;2023-05-03T00:38:03;14.70;72.70
80380;DHT22;69690;48.158;17.134;2023-05-03T00:38:35;14.70;73.00
80380;DHT22;69690;48.158;17.134;2023-05-03T00:39:07;14.70;73.20
80380;DHT22;69690;48.158;17.134;2023-05-03T00:39:38;14.70;73.80
80380;DHT22;69690;48.158;17.134;2023-05-03T00:40:09;14.70;73.00
80380;DHT22;69690;48.158;17.134;2023-05-03T00:40:43;14.70;72.80
80380;DHT22;69690;48.158;17.134;2023-05-03T00:41:15;14.70;73.00
80380;DHT22;69690;48.158;17.134;2023-05-03T00:41:46;14.70;72.90
80380;DHT22;69690;48.158;17.134;2023-05-03T00:42:18;14.70;72.80
80380;DHT22;69690;48.158;17.134;2023-05-03T00:42:49;14.70;73.00
80380;DHT22;69690;48.158;17.134;2023-05-03T00:43:21;14.70;73.60
80380;DHT22;69690;48.158;17.134;2023-05-03T00:43:52;14.70;73.60
80380;DHT22;69690;48.158;17.134;2023-05-03T00:44:23;14.60;73.30
80380;DHT22;69690;48.158;17.134;2023-05-03T00:44:55;14.60;73.30
80380;DHT22;69690;48.158;17.134;2023-05-03T00:45:27;14.60;73.10
80380;DHT22;69690;48.158;17.134;2023-05-03T00:46:00;14.60;73.00
80380;DHT22;69690;48.158;17.134;2023-05-03T00:46:34;14.60;73.30
80380;DHT22;69690;48.158;17.134;2023-05-03T00:47:05;14.60;73.10
80380;DHT22;69690;48.158;17.134;2023-05-03T00:47:37;14.60;72.90
80380;DHT22;69690;48.158;17.134;2023-05-03T00:48:08;14.60;72.80
80380;DHT22;69690;48.158;17.134;2023-05-03T00:48:40;14.50;72.70
80380;DHT22;69690;48.158;17.134;2023-05-03T00:49:11;14.50;72.90
80380;DHT22;69690;48.158;17.134;2023-05-03T00:49:43;14.50;73.00
80380;DHT22;69690;48.158;17.134;2023-05-03T00:50:14;14.40;73.00
80380;DHT22;69690;48.158;17.134;2023-05-03T00:50:48;14.40;72.90
80380;DHT22;69690;48.158;17.134;2023-05-03T00:51:21;14.40;72.80
80380;DHT22;69690;48.158;17.134;2023-05-03T00:51:52;14.30;73.00
80380;DHT22;69690;48.158;17.134;2023-05-03T00:52:25;14.40;73.20
80380;DHT22;69690;48.158;17.134;2023-05-03T00:52:57;14.40;73.00
80380;DHT22;69690;48.158;17.134;2023-05-03T00:53:28;14.40;73.20
80380;DHT22;69690;48.158;17.134;2023-05-03T00:54:01;14.40;73.60
80380;DHT22;69690;48.158;17.134;2023-05-03T00:54:33;14.40;73.80
80380;DHT22;69690;48.158;17.134;2023-05-03T00:55:06;14.40;73.30
80380;DHT22;69690;48.158;17.134;2023-05-03T00:55:38;14.40;72.90
80380;DHT22;69690;48.158;17.134;2023-05-03T00:56:10;14.30;72.70
80380;DHT22;69690;48.158;17.134;2023-05-03T00:56:42;14.40;72.60
80380;DHT22;69690;48.158;17.134;2023-05-03T00:57:13;14.40;72.80
80380;DHT22;69690;48.158;17.134;2023-05-03T00:57:45;14.40;72.80
80380;DHT22;69690;48.158;17.134;2023-05-03T00:58:20;14.40;73.00
80380;DHT22;69690;48.158;17.134;2023-05-03T00:58:52;14.40;73.20
80380;DHT22;69690;48.158;17.134;2023-05-03T00:59:24;14.40;73.10
80380;DHT22;69690;48.158;17.134;2023-05-03T00:59:56;14.40;72.80
80380;DHT22;69690;48.158;17.134;2023-05-03T01:00:28;14.30;72.70
80380;DHT22;69690;48.158;17.134;2023-05-03T01:01:01;14.30;72.80
80380;DHT22;69690;48.158;17.134;2023-05-03T01:01:33;14.30;72.80
80380;DHT22;69690;48.158;17.134;2023-05-03T01:02:04;14.30;72.60
80380;DHT22;69690;48.158;17.134;2023-05-03T01:02:35;14.30;72.70
80380;DHT22;69690;48.158;17.134;2023-05-03T01:03:07;14.30;72.80
80380;DHT22;69690;48.158;17.134;2023-05-03T01:03:38;14.30;72.80
80380;DHT22;69690;48.158;17.134;2023-05-03T01:04:11;14.30;72.90
80380;DHT22;69690;48.158;17.134;2023-05-03T01:04:43;14.20;72.90
80380;DHT22;69690;48.158;17.134;2023-05-03T01:05:15;14.20;72.80
80380;DHT22;69690;48.158;17.134;2023-05-03T01:06:07;14.20;72.90
80380;DHT22;69690;48.158;17.134;2023-05-03T01:07:07;14.20;72.70
80380;DHT22;69690;48.158;17.134;2023-05-03T01:08:12;14.20;72.90
80380;DHT22;69690;48.158;17.134;2023-05-03T01:08:58;14.20;72.80
80380;DHT22;69690;48.158;17.134;2023-05-03T01:09:36;14.20;72.90
80380;DHT22;69690;48.158;17.134;2023-05-03T01:10:25;14.20;73.10
80380;DHT22;69690;48.158;17.134;2023-05-03T01:11:39;14.20;73.00
80380;DHT22;69690;48.158;17.134;2023-05-03T01:12:23;14.20;73.00
80380;DHT22;69690;48.158;17.134;2023-05-03T01:14:09;14.10;73.00
80380;DHT22;69690;48.158;17.134;2023-05-03T01:15:15;14.10;73.20
80380;DHT22;69690;48.158;17.134;2023-05-03T01:15:58;14.10;73.20
80380;DHT22;69690;48.158;17.134;2023-05-03T01:16:39;14.10;73.70
80380;DHT22;69690;48.158;17.134;2023-05-03T01:17:14;14.10;73.60
80380;DHT22;69690;48.158;17.134;2023-05-03T01:17:52;14.10;73.40
80380;DHT22;69690;48.158;17.134;2023-05-03T01:18:30;14.00;73.30
80380;DHT22;69690;48.158;17.134;2023-05-03T01:19:25;14.10;73.40
80380;DHT22;69690;48.158;17.134;2023-05-03T01:20:06;14.10;73.50
80380;DHT22;69690;48.158;17.134;2023-05-03T01:20:43;14.10;73.50
80380;DHT22;69690;48.158;17.134;2023-05-03T01:21:18;14.10;73.70
80380;DHT22;69690;48.158;17.134;2023-05-03T01:21:58;14.10;73.80
80380;DHT22;69690;48.158;17.134;2023-05-03T01:23:04;14.00;73.70
80380;DHT22;69690;48.158;17.134;2023-05-03T01:23:49;14.10;73.70
80380;DHT22;69690;48.158;17.134;2023-05-03T01:24:27;14.00;73.50
80380;DHT22;69690;48.158;17.134;2023-05-03T01:25:06;14.00;73.50
80380;DHT22;69690;48.158;17.134;2023-05-03T01:25:39;14.00;73.70
80380;DHT22;69690;48.158;17.134;2023-05-03T01:26:23;14.00;73.70
80380;DHT22;69690;48.158;17.134;2023-05-03T01:26:56;14.00;73.60
80380;DHT22;69690;48.158;17.134;2023-05-03T01:27:27;14.00;73.70
80380;DHT22;69690;48.158;17.134;2023-05-03T01:27:58;14.00;73.60
80380;DHT22;69690;48.158;17.134;2023-05-03T01:28:31;14.00;73.80
80380;DHT22;69690;48.158;17.134;2023-05-03T01:29:02;14.00;74.20
80380;DHT22;69690;48.158;17.134;2023-05-03T01:29:36;14.00;74.20
80380;DHT22;69690;48.158;17.134;2023-05-03T01:30:09;14.00;74.50
80380;DHT22;69690;48.158;17.134;2023-05-03T01:30:42;14.00;74.50
80380;DHT22;69690;48.158;17.134;2023-05-03T01:32:17;14.10;73.80
80380;DHT22;69690;48.158;17.134;2023-05-03T01:33:04;14.00;73.60
80380;DHT22;69690;48.158;17.134;2023-05-03T01:33:48;14.00;73.90
80380;DHT22;69690;48.158;17.134;2023-05-03T01:35:07;14.10;74.20
80380;DHT22;69690;48.158;17.134;2023-05-03T01:36:03;14.00;73.70
80380;DHT22;69690;48.158;17.134;2023-05-03T01:36:44;14.00;73.50
80380;DHT22;69690;48.158;17.134;2023-05-03T01:37:16;14.00;73.50
80380;DHT22;69690;48.158;17.134;2023-05-03T01:37:48;14.00;73.70
80380;DHT22;69690;48.158;17.134;2023-05-03T01:38:21;14.00;73.60
80380;DHT22;69690;48.158;17.134;2023-05-03T01:38:53;14.00;73.40
80380;DHT22;69690;48.158;17.134;2023-05-03T01:39:49;14.00;73.30
80380;DHT22;69690;48.158;17.134;2023-05-03T01:40:26;14.00;73.10
80380;DHT22;69690;48.158;17.134;2023-05-03T01:41:00;13.90;73.10
80380;DHT22;69690;48.158;17.134;2023-05-03T01:41:33;13.90;73.30
80380;DHT22;69690;48.158;17.134;2023-05-03T01:42:05;13.90;73.70
80380;DHT22;69690;48.158;17.134;2023-05-03T01:42:38;14.00;73.80
80380;DHT22;69690;48.158;17.134;2023-05-03T01:43:11;13.90;73.70
80380;DHT22;69690;48.158;17.134;2023-05-03T01:43:45;13.90;73.50
80380;DHT22;69690;48.158;17.134;2023-05-03T01:44:18;13.90;73.50
80380;DHT22;69690;48.158;17.134;2023-05-03T01:44:52;13.80;73.50
80380;DHT22;69690;48.158;17.134;2023-05-03T01:45:25;13.90;73.60
80380;DHT22;69690;48.158;17.134;2023-05-03T01:45:57;13.80;73.40
80380;DHT22;69690;48.158;17.134;2023-05-03T01:46:28;13.90;73.70
80380;DHT22;69690;48.158;17.134;2023-05-03T01:47:00;13.90;73.70
80380;DHT22;69690;48.158;17.134;2023-05-03T01:47:32;13.80;73.40
80380;DHT22;69690;48.158;17.134;2023-05-03T01:48:13;13.80;73.40
80380;DHT22;69690;48.158;17.134;2023-05-03T01:48:46;13.80;73.70
80380;DHT22;69690;48.158;17.134;2023-05-03T01:49:18;13.80;74.10
80380;DHT22;69690;48.158;17.134;2023-05-03T01:49:49;13.80;74.40
80380;DHT22;69690;48.158;17.134;2023-05-03T01:50:20;13.80;74.10
80380;DHT22;69690;48.158;17.134;2023-05-03T01:50:52;13.80;74.00
80380;DHT22;69690;48.158;17.134;2023-05-03T01:51:23;13.80;73.80
80380;DHT22;69690;48.158;17.134;2023-05-03T01:51:55;13.80;73.90
80380;DHT22;69690;48.158;17.134;2023-05-03T01:52:26;13.80;74.20
80380;DHT22;69690;48.158;17.134;2023-05-03T01:52:57;13.80;74.20
80380;DHT22;69690;48.158;17.134;2023-05-03T01:53:29;13.80;74.20
80380;DHT22;69690;48.158;17.134;2023-05-03T01:54:00;13.80;74.10
80380;DHT22;69690;48.158;17.134;2023-05-03T01:54:33;13.80;74.20
80380;DHT22;69690;48.158;17.134;2023-05-03T01:55:05;13.80;74.20
80380;DHT22;69690;48.158;17.134;2023-05-03T01:55:36;13.80;74.20
80380;DHT22;69690;48.158;17.134;2023-05-03T01:56:08;13.90;74.10
80380;DHT22;69690;48.158;17.134;2023-05-03T01:56:41;13.80;73.70
80380;DHT22;69690;48.158;17.134;2023-05-03T01:57:13;13.90;73.50
80380;DHT22;69690;48.158;17.134;2023-05-03T01:57:44;13.80;73.30
80380;DHT22;69690;48.158;17.134;2023-05-03T01:58:15;13.80;73.40
80380;DHT22;69690;48.158;17.134;2023-05-03T01:58:47;13.80;73.50
80380;DHT22;69690;48.158;17.134;2023-05-03T01:59:18;13.80;73.70
80380;DHT22;69690;48.158;17.134;2023-05-03T01:59:49;13.80;74.10
80380;DHT22;69690;48.158;17.134;2023-05-03T02:00:21;13.80;74.10
80380;DHT22;69690;48.158;17.134;2023-05-03T02:00:52;13.80;74.00
80380;DHT22;69690;48.158;17.134;2023-05-03T02:01:24;13.90;74.10
80380;DHT22;69690;48.158;17.134;2023-05-03T02:01:55;13.90;74.20
80380;DHT22;69690;48.158;17.134;2023-05-03T02:02:26;13.90;74.00
80380;DHT22;69690;48.158;17.134;2023-05-03T02:02:58;13.90;74.00
80380;DHT22;69690;48.158;17.134;2023-05-03T02:03:29;13.90;74.10
80380;DHT22;69690;48.158;17.134;2023-05-03T02:04:00;13.90;74.00
80380;DHT22;69690;48.158;17.134;2023-05-03T02:04:31;13.90;73.60
80380;DHT22;69690;48.158;17.134;2023-05-03T02:05:03;13.90;73.60
80380;DHT22;69690;48.158;17.134;2023-05-03T02:05:34;13.90;73.60
80380;DHT22;69690;48.158;17.134;2023-05-03T02:06:06;13.80;73.80
80380;DHT22;69690;48.158;17.134;2023-05-03T02:06:38;13.80;73.90
80380;DHT22;69690;48.158;17.134;2023-05-03T02:07:29;13.80;74.00
80380;DHT22;69690;48.158;17.134;2023-05-03T02:08:00;13.80;73.50
80380;DHT22;69690;48.158;17.134;2023-05-03T02:08:32;13.80;73.40
80380;DHT22;69690;48.158;17.134;2023-05-03T02:09:03;13.80;73.40
80380;DHT22;69690;48.158;17.134;2023-05-03T02:09:34;13.80;73.40
80380;DHT22;69690;48.158;17.134;2023-05-03T02:10:07;13.80;73.50
80380;DHT22;69690;48.158;17.134;2023-05-03T02:10:38;13.80;73.70
80380;DHT22;69690;48.158;17.134;2023-05-03T02:11:10;13.80;73.80
80380;DHT22;69690;48.158;17.134;2023-05-03T02:11:41;13.80;73.80
80380;DHT22;69690;48.158;17.134;2023-05-03T02:12:13;13.80;73.50
80380;DHT22;69690;48.158;17.134;2023-05-03T02:12:45;13.80;73.30
80380;DHT22;69690;48.158;17.134;2023-05-03T02:13:16;13.80;73.40
80380;DHT22;69690;48.158;17.134;2023-05-03T02:13:48;13.80;73.50
80380;DHT22;69690;48.158;17.134;2023-05-03T02:14:21;13.70;73.40
80380;DHT22;69690;48.158;17.134;2023-05-03T02:14:52;13.80;73.50
80380;DHT22;69690;48.158;17.134;2023-05-03T02:15:23;13.80;73.90
80380;DHT22;69690;48.158;17.134;2023-05-03T02:15:57;13.80;74.00
80380;DHT22;69690;48.158;17.134;2023-05-03T02:16:28;13.80;73.90
80380;DHT22;69690;48.158;17.134;2023-05-03T02:17:00;13.80;74.00
80380;DHT22;69690;48.158;17.134;2023-05-03T02:17:34;13.80;74.00
80380;DHT22;69690;48.158;17.134;2023-05-03T02:18:05;13.80;74.00
80380;DHT22;69690;48.158;17.134;2023-05-03T02:18:38;13.80;73.80
80380;DHT22;69690;48.158;17.134;2023-05-03T02:19:09;13.80;73.80
80380;DHT22;69690;48.158;17.134;2023-05-03T02:19:41;13.80;73.90
80380;DHT22;69690;48.158;17.134;2023-05-03T02:20:12;13.80;73.80
80380;DHT22;69690;48.158;17.134;2023-05-03T02:20:44;13.80;73.90
80380;DHT22;69690;48.158;17.134;2023-05-03T02:21:16;13.80;73.70
80380;DHT22;69690;48.158;17.134;2023-05-03T02:21:47;13.80;73.50
80380;DHT22;69690;48.158;17.134;2023-05-03T02:22:20;13.70;73.40
80380;DHT22;69690;48.158;17.134;2023-05-03T02:22:51;13.80;73.50
80380;DHT22;69690;48.158;17.134;2023-05-03T02:23:23;13.70;73.70
80380;DHT22;69690;48.158;17.134;2023-05-03T02:23:54;13.80;73.70
80380;DHT22;69690;48.158;17.134;2023-05-03T02:24:26;13.80;73.60
80380;DHT22;69690;48.158;17.134;2023-05-03T02:24:58;13.70;73.50
80380;DHT22;69690;48.158;17.134;2023-05-03T02:25:29;13.70;73.70
80380;DHT22;69690;48.158;17.134;2023-05-03T02:26:01;13.80;74.00
80380;DHT22;69690;48.158;17.134;2023-05-03T02:26:32;13.70;74.10
80380;DHT22;69690;48.158;17.134;2023-05-03T02:27:03;13.80;74.50
80380;DHT22;69690;48.158;17.134;2023-05-03T02:27:34;13.80;74.80
80380;DHT22;69690;48.158;17.134;2023-05-03T02:28:06;13.80;74.30
80380;DHT22;69690;48.158;17.134;2023-05-03T02:28:37;13.70;73.70
80380;DHT22;69690;48.158;17.134;2023-05-03T02:29:08;13.80;74.00
80380;DHT22;69690;48.158;17.134;2023-05-03T02:29:40;13.80;74.10
80380;DHT22;69690;48.158;17.134;2023-05-03T02:30:12;13.80;74.10
80380;DHT22;69690;48.158;17.134;2023-05-03T02:30:43;13.80;74.10
80380;DHT22;69690;48.158;17.134;2023-05-03T02:31:14;13.80;74.00
80380;DHT22;69690;48.158;17.134;2023-05-03T02:31:46;13.80;74.00
80380;DHT22;69690;48.158;17.134;2023-05-03T02:32:17;13.80;74.00
80380;DHT22;69690;48.158;17.134;2023-05-03T02:32:49;13.70;73.70
80380;DHT22;69690;48.158;17.134;2023-05-03T02:33:20;13.70;73.60
80380;DHT22;69690;48.158;17.134;2023-05-03T02:33:52;13.70;73.60
80380;DHT22;69690;48.158;17.134;2023-05-03T02:34:26;13.70;73.70
80380;DHT22;69690;48.158;17.134;2023-05-03T02:34:57;13.70;73.60
80380;DHT22;69690;48.158;17.134;2023-05-03T02:35:29;13.70;73.80
80380;DHT22;69690;48.158;17.134;2023-05-03T02:36:00;13.70;74.00
80380;DHT22;69690;48.158;17.134;2023-05-03T02:36:31;13.70;74.00
80380;DHT22;69690;48.158;17.134;2023-05-03T02:37:03;13.70;73.70
80380;DHT22;69690;48.158;17.134;2023-05-03T02:37:35;13.70;73.60
80380;DHT22;69690;48.158;17.134;2023-05-03T02:38:07;13.70;73.60
80380;DHT22;69690;48.158;17.134;2023-05-03T02:38:38;13.70;73.60
80380;DHT22;69690;48.158;17.134;2023-05-03T02:39:10;13.70;73.70
80380;DHT22;69690;48.158;17.134;2023-05-03T02:39:41;13.70;73.70
80380;DHT22;69690;48.158;17.134;2023-05-03T02:40:13;13.70;73.70
80380;DHT22;69690;48.158;17.134;2023-05-03T02:40:45;13.70;73.90
80380;DHT22;69690;48.158;17.134;2023-05-03T02:41:16;13.70;74.00
80380;DHT22;69690;48.158;17.134;2023-05-03T02:42:08;13.80;73.90
80380;DHT22;69690;48.158;17.134;2023-05-03T02:42:40;13.80;73.70
80380;DHT22;69690;48.158;17.134;2023-05-03T02:43:11;13.80;73.60
80380;DHT22;69690;48.158;17.134;2023-05-03T02:43:43;13.80;73.40
80380;DHT22;69690;48.158;17.134;2023-05-03T02:44:14;13.80;73.40
80380;DHT22;69690;48.158;17.134;2023-05-03T02:44:45;13.70;73.70
80380;DHT22;69690;48.158;17.134;2023-05-03T02:45:17;13.80;73.90
80380;DHT22;69690;48.158;17.134;2023-05-03T02:45:49;13.80;73.80
80380;DHT22;69690;48.158;17.134;2023-05-03T02:46:20;13.80;73.50
80380;DHT22;69690;48.158;17.134;2023-05-03T02:46:51;13.80;73.50
80380;DHT22;69690;48.158;17.134;2023-05-03T02:47:24;13.80;73.60
80380;DHT22;69690;48.158;17.134;2023-05-03T02:47:56;13.80;73.70
80380;DHT22;69690;48.158;17.134;2023-05-03T02:48:29;13.80;73.80
80380;DHT22;69690;48.158;17.134;2023-05-03T02:49:01;13.80;73.70
80380;DHT22;69690;48.158;17.134;2023-05-03T02:49:33;13.80;73.60
80380;DHT22;69690;48.158;17.134;2023-05-03T02:50:04;13.80;73.50
80380;DHT22;69690;48.158;17.134;2023-05-03T02:50:37;13.80;73.60
80380;DHT22;69690;48.158;17.134;2023-05-03T02:51:09;13.80;73.70
80380;DHT22;69690;48.158;17.134;2023-05-03T02:51:40;13.90;73.40
80380;DHT22;69690;48.158;17.134;2023-05-03T02:52:11;13.90;73.40
80380;DHT22;69690;48.158;17.134;2023-05-03T02:52:43;13.80;73.20
80380;DHT22;69690;48.158;17.134;2023-05-03T02:53:14;13.80;72.90
80380;DHT22;69690;48.158;17.134;2023-05-03T02:53:46;13.90;72.80
80380;DHT22;69690;48.158;17.134;2023-05-03T02:54:17;13.80;72.70
80380;DHT22;69690;48.158;17.134;2023-05-03T02:54:49;13.80;72.70
80380;DHT22;69690;48.158;17.134;2023-05-03T02:55:21;13.80;72.90
80380;DHT22;69690;48.158;17.134;2023-05-03T02:55:52;13.80;72.90
80380;DHT22;69690;48.158;17.134;2023-05-03T02:56:24;13.70;72.90
80380;DHT22;69690;48.158;17.134;2023-05-03T02:56:58;13.70;72.80
80380;DHT22;69690;48.158;17.134;2023-05-03T02:57:29;13.70;72.80
80380;DHT22;69690;48.158;17.134;2023-05-03T02:58:01;13.70;72.90
80380;DHT22;69690;48.158;17.134;2023-05-03T02:58:32;13.70;72.90
80380;DHT22;69690;48.158;17.134;2023-05-03T02:59:05;13.70;72.80
80380;DHT22;69690;48.158;17.134;2023-05-03T02:59:36;13.70;72.90
80380;DHT22;69690;48.158;17.134;2023-05-03T03:00:09;13.70;73.30
80380;DHT22;69690;48.158;17.134;2023-05-03T03:00:45;13.70;73.10
80380;DHT22;69690;48.158;17.134;2023-05-03T03:01:17;13.70;73.00
80380;DHT22;69690;48.158;17.134;2023-05-03T03:01:48;13.70;72.90
80380;DHT22;69690;48.158;17.134;2023-05-03T03:02:20;13.70;72.90
80380;DHT22;69690;48.158;17.134;2023-05-03T03:02:52;13.70;72.90
80380;DHT22;69690;48.158;17.134;2023-05-03T03:03:24;13.70;73.10
80380;DHT22;69690;48.158;17.134;2023-05-03T03:03:56;13.70;73.50
80380;DHT22;69690;48.158;17.134;2023-05-03T03:04:27;13.70;73.70
80380;DHT22;69690;48.158;17.134;2023-05-03T03:04:58;13.70;73.50
80380;DHT22;69690;48.158;17.134;2023-05-03T03:05:29;13.70;73.10
80380;DHT22;69690;48.158;17.134;2023-05-03T03:06:01;13.80;73.00
80380;DHT22;69690;48.158;17.134;2023-05-03T03:06:32;13.70;73.00
80380;DHT22;69690;48.158;17.134;2023-05-03T03:07:04;13.60;73.00
80380;DHT22;69690;48.158;17.134;2023-05-03T03:07:38;13.70;73.10
80380;DHT22;69690;48.158;17.134;2023-05-03T03:08:10;13.60;73.60
80380;DHT22;69690;48.158;17.134;2023-05-03T03:08:41;13.70;73.00
80380;DHT22;69690;48.158;17.134;2023-05-03T03:09:13;13.60;73.10
80380;DHT22;69690;48.158;17.134;2023-05-03T03:09:44;13.70;73.10
80380;DHT22;69690;48.158;17.134;2023-05-03T03:10:15;13.60;73.10
80380;DHT22;69690;48.158;17.134;2023-05-03T03:10:47;13.60;73.20
80380;DHT22;69690;48.158;17.134;2023-05-03T03:11:18;13.60;73.20
80380;DHT22;69690;48.158;17.134;2023-05-03T03:11:52;13.60;73.40
80380;DHT22;69690;48.158;17.134;2023-05-03T03:12:24;13.70;73.40
80380;DHT22;69690;48.158;17.134;2023-05-03T03:12:58;13.60;73.60
80380;DHT22;69690;48.158;17.134;2023-05-03T03:13:30;13.60;73.50
80380;DHT22;69690;48.158;17.134;2023-05-03T03:14:02;13.60;73.60
80380;DHT22;69690;48.158;17.134;2023-05-03T03:14:33;13.60;73.80
80380;DHT22;69690;48.158;17.134;2023-05-03T03:15:05;13.70;74.00
80380;DHT22;69690;48.158;17.134;2023-05-03T03:15:37;13.70;73.70
80380;DHT22;69690;48.158;17.134;2023-05-03T03:16:08;13.70;73.50
80380;DHT22;69690;48.158;17.134;2023-05-03T03:16:40;13.70;73.70
80380;DHT22;69690;48.158;17.134;2023-05-03T03:17:11;13.70;73.70
80380;DHT22;69690;48.158;17.134;2023-05-03T03:17:43;13.70;73.60
80380;DHT22;69690;48.158;17.134;2023-05-03T03:18:14;13.60;73.40
80380;DHT22;69690;48.158;17.134;2023-05-03T03:18:46;13.60;73.40
80380;DHT22;69690;48.158;17.134;2023-05-03T03:19:17;13.60;73.50
80380;DHT22;69690;48.158;17.134;2023-05-03T03:19:49;13.60;73.40
80380;DHT22;69690;48.158;17.134;2023-05-03T03:20:20;13.60;73.60
80380;DHT22;69690;48.158;17.134;2023-05-03T03:20:51;13.60;73.70
80380;DHT22;69690;48.158;17.134;2023-05-03T03:21:23;13.70;73.80
80380;DHT22;69690;48.158;17.134;2023-05-03T03:21:55;13.60;73.90
80380;DHT22;69690;48.158;17.134;2023-05-03T03:22:26;13.60;73.70
80380;DHT22;69690;48.158;17.134;2023-05-03T03:22:58;13.60;73.60
80380;DHT22;69690;48.158;17.134;2023-05-03T03:23:30;13.60;73.70
80380;DHT22;69690;48.158;17.134;2023-05-03T03:24:03;13.70;74.00
80380;DHT22;69690;48.158;17.134;2023-05-03T03:24:34;13.60;73.70
80380;DHT22;69690;48.158;17.134;2023-05-03T03:25:06;13.70;73.90
80380;DHT22;69690;48.158;17.134;2023-05-03T03:25:38;13.70;73.90
80380;DHT22;69690;48.158;17.134;2023-05-03T03:26:10;13.60;73.60
80380;DHT22;69690;48.158;17.134;2023-05-03T03:26:42;13.60;73.50
80380;DHT22;69690;48.158;17.134;2023-05-03T03:27:14;13.60;73.70
80380;DHT22;69690;48.158;17.134;2023-05-03T03:27:45;13.60;73.70
80380;DHT22;69690;48.158;17.134;2023-05-03T03:28:16;13.60;73.80
80380;DHT22;69690;48.158;17.134;2023-05-03T03:28:49;13.70;74.00
80380;DHT22;69690;48.158;17.134;2023-05-03T03:29:21;13.70;74.10